createdAt,value
2023-03-17T00:00:48.381Z,5.90
2023-03-17T00:03:23.081Z,3.90
2023-03-17T00:05:52.426Z,3.70
2023-03-17T00:08:29.355Z,3.60
2023-03-17T00:10:57.830Z,7.18
2023-03-17T00:13:27.097Z,4.90
2023-03-17T00:16:03.767Z,4.72
2023-03-17T00:18:34.305Z,7.57
2023-03-17T00:21:02.934Z,6.25
2023-03-17T00:23:31.449Z,4.90
2023-03-17T00:25:59.768Z,5.35
2023-03-17T00:28:29.209Z,7.13
2023-03-17T00:31:00.261Z,7.00
2023-03-17T00:33:31.268Z,5.80
2023-03-17T00:36:00.374Z,4.53
2023-03-17T00:38:28.835Z,6.28
2023-03-17T00:40:57.141Z,5.85
2023-03-17T00:43:25.393Z,9.68
2023-03-17T00:45:53.699Z,9.85
2023-03-17T00:48:22.708Z,4.68
2023-03-17T00:50:51.687Z,14.10
2023-03-17T00:53:22.544Z,6.85
2023-03-17T00:55:51.095Z,4.30
2023-03-17T00:58:31.558Z,6.90
2023-03-17T01:01:00.659Z,5.47
2023-03-17T01:03:29.698Z,6.45
2023-03-17T01:05:58.676Z,5.93
2023-03-17T01:08:27.621Z,7.28
2023-03-17T01:10:55.815Z,6.45
2023-03-17T01:13:24.876Z,7.72
2023-03-17T01:15:54.039Z,10.43
2023-03-17T01:18:23.774Z,6.32
2023-03-17T01:20:52.452Z,4.47
2023-03-17T01:23:20.850Z,5.65
2023-03-17T01:25:49.968Z,7.90
2023-03-17T01:28:20.479Z,5.15
2023-03-17T01:30:50.120Z,5.95
2023-03-17T01:33:18.392Z,6.22
2023-03-17T01:35:49.756Z,7.35
2023-03-17T01:38:18.396Z,6.65
2023-03-17T01:40:50.596Z,5.75
2023-03-17T01:43:20.922Z,5.07
2023-03-17T01:46:22.166Z,6.30
2023-03-17T01:49:05.107Z,4.68
2023-03-17T01:51:39.855Z,7.63
2023-03-17T01:54:17.898Z,7.70
2023-03-17T01:56:49.918Z,7.95
2023-03-17T01:59:31.897Z,6.43
2023-03-17T02:02:05.026Z,7.57
2023-03-17T02:04:34.933Z,8.10
2023-03-17T02:07:06.111Z,5.10
2023-03-17T02:09:35.311Z,6.18
2023-03-17T02:12:04.791Z,7.03
2023-03-17T02:14:33.096Z,6.13
2023-03-17T02:17:01.615Z,6.93
2023-03-17T02:19:30.069Z,6.75
2023-03-17T02:22:00.325Z,7.57
2023-03-17T02:24:34.702Z,6.10
2023-03-17T02:27:12.690Z,8.95
2023-03-17T02:29:41.307Z,7.28
2023-03-17T02:32:10.884Z,6.43
2023-03-17T02:34:39.113Z,7.40
2023-03-17T02:37:08.596Z,7.55
2023-03-17T02:39:37.249Z,9.40
2023-03-17T02:42:06.565Z,8.50
2023-03-17T02:44:34.770Z,7.43
2023-03-17T02:47:03.045Z,9.15
2023-03-17T02:49:32.978Z,7.53
2023-03-17T02:52:01.240Z,6.32
2023-03-17T02:54:29.566Z,6.35
2023-03-17T02:56:57.822Z,8.60
2023-03-17T02:59:26.077Z,7.88
2023-03-17T03:01:54.561Z,8.63
2023-03-17T03:04:23.221Z,6.65
2023-03-17T03:06:52.046Z,8.50
2023-03-17T03:09:20.328Z,5.00
2023-03-17T03:11:48.959Z,9.30
2023-03-17T03:14:17.260Z,5.65
2023-03-17T03:16:46.273Z,7.13
2023-03-17T03:19:14.763Z,8.52
2023-03-17T03:21:43.237Z,10.75
2023-03-17T03:24:12.423Z,7.45
2023-03-17T03:26:40.669Z,8.57
2023-03-17T03:29:09.896Z,8.73
2023-03-17T03:31:38.159Z,7.00
2023-03-17T03:34:06.774Z,9.55
2023-03-17T03:36:35.144Z,9.90
2023-03-17T03:39:04.077Z,7.80
2023-03-17T03:41:32.493Z,7.60
2023-03-17T03:44:01.143Z,13.55
2023-03-17T03:46:29.583Z,9.85
2023-03-17T03:48:57.811Z,6.53
2023-03-17T03:51:25.984Z,9.30
2023-03-17T03:53:54.235Z,8.55
2023-03-17T03:56:22.553Z,10.82
2023-03-17T03:58:52.080Z,7.50
2023-03-17T04:01:20.508Z,9.73
2023-03-17T04:03:48.780Z,8.90
2023-03-17T04:06:17.192Z,10.15
2023-03-17T04:08:45.870Z,7.93
2023-03-17T04:11:14.119Z,10.75
2023-03-17T04:13:42.906Z,11.02
2023-03-17T04:16:11.215Z,8.27
2023-03-17T04:18:39.509Z,7.78
2023-03-17T04:21:09.169Z,9.27
2023-03-17T04:23:37.512Z,9.20
2023-03-17T04:26:05.922Z,10.20
2023-03-17T04:28:34.147Z,9.70
2023-03-17T04:31:02.398Z,9.88
2023-03-17T04:33:30.606Z,9.57
2023-03-17T04:35:59.315Z,12.05
2023-03-17T04:38:27.553Z,6.18
2023-03-17T04:40:55.776Z,8.63
2023-03-17T04:43:23.983Z,9.05
2023-03-17T04:45:52.966Z,10.48
2023-03-17T04:48:21.341Z,10.65
2023-03-17T04:50:49.731Z,8.25
2023-03-17T04:53:18.558Z,10.30
2023-03-17T04:55:46.832Z,8.13
2023-03-17T04:58:29.581Z,16.00
2023-03-17T05:00:59.127Z,9.95
2023-03-17T05:03:28.949Z,11.25
2023-03-17T05:05:58.717Z,7.20
2023-03-17T05:08:29.140Z,8.93
2023-03-17T05:10:58.207Z,9.68
2023-03-17T05:13:27.372Z,8.32
2023-03-17T05:15:57.083Z,11.50
2023-03-17T05:18:27.138Z,7.47
2023-03-17T05:20:55.993Z,8.23
2023-03-17T05:23:24.547Z,8.63
2023-03-17T05:25:53.436Z,8.82
2023-03-17T05:28:22.678Z,6.60
2023-03-17T05:30:51.256Z,9.60
2023-03-17T05:33:20.339Z,8.57
2023-03-17T05:35:48.658Z,12.15
2023-03-17T05:38:17.278Z,6.07
2023-03-17T05:40:50.228Z,9.48
2023-03-17T05:43:18.815Z,8.45
2023-03-17T05:45:48.103Z,8.65
2023-03-17T05:48:16.496Z,10.07
2023-03-17T05:50:45.495Z,10.88
2023-03-17T05:53:13.697Z,9.52
2023-03-17T05:55:42.566Z,9.07
2023-03-17T05:58:10.827Z,7.97
2023-03-17T06:00:39.714Z,11.00
2023-03-17T06:03:08.685Z,8.20
2023-03-17T06:05:37.603Z,6.90
2023-03-17T06:08:06.610Z,8.10
2023-03-17T06:10:35.150Z,7.45
2023-03-17T06:13:05.382Z,7.65
2023-03-17T06:15:34.784Z,12.48
2023-03-17T06:18:03.310Z,6.95
2023-03-17T06:20:32.072Z,13.50
2023-03-17T06:23:04.997Z,9.68
2023-03-17T06:25:35.810Z,10.35
2023-03-17T06:28:06.303Z,11.95
2023-03-17T06:30:40.545Z,10.70
2023-03-17T06:33:09.509Z,10.38
2023-03-17T06:35:38.147Z,9.20
2023-03-17T06:38:06.649Z,7.80
2023-03-17T06:40:34.990Z,11.48
2023-03-17T06:43:03.842Z,9.35
2023-03-17T06:45:33.707Z,10.95
2023-03-17T06:48:02.531Z,9.02
2023-03-17T06:50:30.788Z,9.25
2023-03-17T06:52:59.006Z,8.07
2023-03-17T06:55:28.255Z,6.85
2023-03-17T06:57:56.709Z,8.90
2023-03-17T07:00:25.023Z,10.40
2023-03-17T07:02:53.479Z,8.60
2023-03-17T07:05:21.683Z,8.88
2023-03-17T07:07:50.650Z,9.18
2023-03-17T07:10:19.502Z,12.00
2023-03-17T07:12:47.912Z,11.13
2023-03-17T07:15:18.037Z,13.40
2023-03-17T07:17:58.845Z,13.70
2023-03-17T07:20:27.029Z,10.07
2023-03-17T07:22:55.332Z,9.85
2023-03-17T07:25:23.658Z,8.05
2023-03-17T07:27:52.770Z,7.03
2023-03-17T07:30:21.419Z,13.95
2023-03-17T07:32:50.140Z,10.55
2023-03-17T07:35:18.729Z,8.00
2023-03-17T07:37:47.117Z,9.82
2023-03-17T07:40:15.553Z,11.48
2023-03-17T07:42:44.082Z,7.55
2023-03-17T07:45:13.521Z,6.75
2023-03-17T07:47:41.768Z,14.20
2023-03-17T07:50:10.635Z,7.38
2023-03-17T07:52:38.974Z,11.70
2023-03-17T07:55:14.221Z,8.07
2023-03-17T07:57:42.572Z,10.32
2023-03-17T08:00:11.584Z,9.25
2023-03-17T08:02:40.034Z,10.05
2023-03-17T08:05:08.821Z,10.10
2023-03-17T08:07:41.339Z,8.10
2023-03-17T08:10:10.425Z,10.13
2023-03-17T08:12:38.667Z,10.30
2023-03-17T08:15:07.600Z,10.18
2023-03-17T08:17:37.304Z,7.60
2023-03-17T08:20:06.001Z,9.48
2023-03-17T08:22:34.261Z,11.50
2023-03-17T08:25:03.464Z,9.25
2023-03-17T08:27:33.658Z,12.10
2023-03-17T08:30:02.127Z,6.85
2023-03-17T08:32:30.421Z,9.68
2023-03-17T08:34:58.756Z,9.68
2023-03-17T08:37:27.188Z,12.05
2023-03-17T08:39:55.822Z,10.25
2023-03-17T08:42:24.312Z,8.70
2023-03-17T08:44:52.787Z,7.38
2023-03-17T08:47:20.986Z,8.68
2023-03-17T08:49:49.194Z,8.15
2023-03-17T08:52:17.962Z,7.32
2023-03-17T08:54:46.718Z,10.85
2023-03-17T08:57:15.804Z,7.40
2023-03-17T08:59:44.112Z,9.27
2023-03-17T09:02:13.511Z,10.23
2023-03-17T09:04:42.061Z,12.13
2023-03-17T09:07:11.244Z,7.28
2023-03-17T09:09:39.673Z,10.32
2023-03-17T09:12:08.692Z,8.38
2023-03-17T09:14:43.741Z,6.75
2023-03-17T09:17:14.690Z,8.20
2023-03-17T09:19:44.212Z,5.95
2023-03-17T09:22:17.205Z,12.35
2023-03-17T09:24:45.553Z,8.73
2023-03-17T09:27:14.375Z,6.28
2023-03-17T09:29:43.465Z,5.78
2023-03-17T09:32:12.058Z,10.73
2023-03-17T09:34:40.338Z,6.18
2023-03-17T09:37:10.596Z,7.60
2023-03-17T09:39:39.033Z,8.68
2023-03-17T09:42:39.738Z,8.75
2023-03-17T09:45:49.507Z,6.32
2023-03-17T09:48:41.901Z,7.05
2023-03-17T09:51:18.950Z,6.88
2023-03-17T09:54:13.583Z,6.72
2023-03-17T09:56:48.206Z,5.43
2023-03-17T10:01:47.307Z,10.10
2023-03-17T10:04:18.749Z,8.02
2023-03-17T10:06:48.404Z,7.65
2023-03-17T10:09:27.572Z,8.85
2023-03-17T10:12:25.869Z,6.50
2023-03-17T10:15:02.791Z,7.55
2023-03-17T10:17:41.502Z,5.50
2023-03-17T10:20:35.763Z,7.25
2023-03-17T10:23:13.127Z,6.75
2023-03-17T10:25:42.309Z,5.07
2023-03-17T10:28:26.829Z,7.05
2023-03-17T10:30:56.010Z,7.10
2023-03-17T10:33:24.283Z,6.30
2023-03-17T10:35:52.530Z,4.93
2023-03-17T10:38:23.611Z,5.93
2023-03-17T10:41:00.421Z,7.28
2023-03-17T10:43:37.175Z,4.85
2023-03-17T10:46:08.438Z,7.45
2023-03-17T10:48:39.716Z,4.80
2023-03-17T10:51:12.577Z,5.80
2023-03-17T10:53:45.747Z,5.38
2023-03-17T10:56:25.954Z,5.40
2023-03-17T10:58:56.333Z,7.47
2023-03-17T11:01:49.395Z,8.23
2023-03-17T11:04:39.379Z,7.15
2023-03-17T11:07:19.133Z,5.63
2023-03-17T11:09:52.451Z,7.40
2023-03-17T11:12:27.247Z,4.43
2023-03-17T11:20:31.297Z,6.47
2023-03-17T11:23:04.237Z,7.28
2023-03-17T11:25:35.712Z,6.25
2023-03-17T11:28:17.920Z,9.43
2023-03-17T11:31:04.233Z,6.53
2023-03-17T11:33:43.722Z,5.88
2023-03-17T11:36:46.630Z,5.38
2023-03-17T11:39:21.593Z,7.22
2023-03-17T11:42:15.711Z,8.15
2023-03-17T11:45:17.731Z,5.50
2023-03-17T11:48:04.442Z,8.50
2023-03-17T11:50:46.957Z,6.22
2023-03-17T11:53:35.882Z,6.55
2023-03-17T11:56:21.599Z,7.78
2023-03-17T11:58:57.346Z,8.70
2023-03-17T12:01:33.566Z,5.45
2023-03-17T12:04:21.482Z,7.75
2023-03-17T12:07:21.635Z,6.85
2023-03-17T12:10:05.347Z,5.05
2023-03-17T12:12:40.452Z,6.45
2023-03-17T12:15:19.681Z,5.03
2023-03-17T12:17:58.485Z,9.27
2023-03-17T12:20:48.933Z,6.68
2023-03-17T12:23:32.682Z,5.38
2023-03-17T12:26:17.321Z,5.35
2023-03-17T12:29:01.354Z,7.00
2023-03-17T12:31:38.443Z,7.53
2023-03-17T12:34:29.790Z,8.15
2023-03-17T12:36:58.123Z,5.78
2023-03-17T12:39:33.843Z,6.28
2023-03-17T12:42:11.809Z,7.88
2023-03-17T12:44:51.469Z,5.22
2023-03-17T12:47:31.509Z,7.13
2023-03-17T12:50:21.045Z,5.07
2023-03-17T12:53:13.256Z,5.90
2023-03-17T12:55:46.454Z,6.25
2023-03-17T12:58:34.916Z,6.43
2023-03-17T13:01:25.054Z,7.40
2023-03-17T13:04:05.584Z,6.85
2023-03-17T13:06:55.705Z,7.97
2023-03-17T13:09:40.304Z,8.40
2023-03-17T13:12:28.465Z,7.03
2023-03-17T13:14:59.753Z,6.35
2023-03-17T13:17:33.190Z,6.68
2023-03-17T13:20:12.970Z,7.50
2023-03-17T13:23:03.257Z,6.05
2023-03-17T13:25:42.301Z,6.15
2023-03-17T13:28:13.642Z,7.95
2023-03-17T13:30:41.953Z,5.68
2023-03-17T13:33:13.905Z,7.03
2023-03-17T13:36:20.351Z,7.57
2023-03-17T13:39:18.797Z,8.00
2023-03-17T13:42:11.837Z,8.00
2023-03-17T13:45:04.989Z,7.22
2023-03-17T13:47:45.968Z,6.57
2023-03-17T13:50:22.127Z,5.75
2023-03-17T13:52:51.500Z,6.15
2023-03-17T13:55:19.751Z,5.93
2023-03-17T13:58:18.388Z,7.70
2023-03-17T14:00:52.390Z,6.35
2023-03-17T14:03:49.776Z,6.03
2023-03-17T14:06:20.532Z,5.65
2023-03-17T14:09:09.136Z,5.40
2023-03-17T14:11:40.281Z,6.43
2023-03-17T14:14:32.068Z,7.68
2023-03-17T14:17:06.005Z,6.07
2023-03-17T14:19:34.285Z,8.25
2023-03-17T14:22:23.514Z,7.72
2023-03-17T14:25:02.536Z,6.97
2023-03-17T14:27:34.816Z,7.40
2023-03-17T14:30:18.260Z,5.45
2023-03-17T14:33:14.801Z,6.03
2023-03-17T14:35:44.555Z,7.40
2023-03-17T14:38:29.136Z,6.88
2023-03-17T14:41:09.347Z,6.35
2023-03-17T14:43:38.133Z,8.98
2023-03-17T14:46:07.565Z,7.65
2023-03-17T14:48:39.131Z,6.28
2023-03-17T14:51:23.851Z,8.88
2023-03-17T14:53:54.034Z,11.55
2023-03-17T14:56:30.742Z,7.30
2023-03-17T14:59:06.778Z,9.07
2023-03-17T15:01:43.001Z,9.25
2023-03-17T15:04:21.353Z,9.13
2023-03-17T15:06:58.094Z,11.50
2023-03-17T15:09:40.309Z,14.23
2023-03-17T15:12:17.091Z,15.18
2023-03-17T15:14:47.505Z,19.00
2023-03-17T15:17:27.593Z,14.88
2023-03-17T15:19:59.015Z,9.93
2023-03-17T15:22:43.656Z,9.27
2023-03-17T15:25:34.416Z,11.20
2023-03-17T15:28:02.634Z,12.27
2023-03-17T15:30:44.316Z,11.18
2023-03-17T15:33:29.556Z,11.55
2023-03-17T15:36:00.871Z,10.80
2023-03-17T15:38:29.896Z,13.10
2023-03-17T15:40:58.196Z,12.40
2023-03-17T15:43:26.739Z,13.30
2023-03-17T15:46:06.640Z,13.55
2023-03-17T15:48:39.812Z,12.48
2023-03-17T15:51:08.361Z,13.40
2023-03-17T15:53:36.623Z,15.68
2023-03-17T15:56:05.073Z,13.75
2023-03-17T15:58:33.396Z,18.25
2023-03-17T16:01:02.188Z,17.42
2023-03-17T16:03:36.044Z,14.43
2023-03-17T16:06:08.990Z,13.60
2023-03-17T16:08:38.466Z,12.85
2023-03-17T16:11:08.585Z,15.77
2023-03-17T16:13:36.793Z,14.63
2023-03-17T16:16:06.475Z,17.45
2023-03-17T16:18:38.532Z,18.35
2023-03-17T16:21:06.856Z,12.70
2023-03-17T16:23:37.627Z,15.45
2023-03-17T16:26:14.805Z,15.50
2023-03-17T16:28:46.398Z,12.68
2023-03-17T16:31:32.530Z,18.02
2023-03-17T16:34:01.141Z,13.63
2023-03-17T16:36:29.370Z,13.85
2023-03-17T16:38:57.974Z,10.65
2023-03-17T16:41:28.232Z,12.57
2023-03-17T16:44:03.553Z,15.80
2023-03-17T16:46:35.689Z,16.38
2023-03-17T16:49:05.145Z,13.48
2023-03-17T16:51:33.404Z,16.10
2023-03-17T16:54:01.677Z,14.07
2023-03-17T16:56:30.689Z,14.63
2023-03-17T16:58:59.004Z,16.00
2023-03-17T17:01:29.059Z,13.30
2023-03-17T17:03:58.030Z,15.38
2023-03-17T17:06:26.904Z,14.05
2023-03-17T17:08:55.201Z,14.15
2023-03-17T17:11:23.463Z,14.15
2023-03-17T17:13:52.531Z,15.40
2023-03-17T17:16:23.563Z,12.52
2023-03-17T17:18:51.839Z,12.38
2023-03-17T17:21:20.207Z,13.30
2023-03-17T17:23:49.255Z,13.88
2023-03-17T17:26:18.444Z,14.20
2023-03-17T17:28:47.067Z,13.80
2023-03-17T17:31:15.368Z,10.02
2023-03-17T17:33:43.628Z,12.35
2023-03-17T17:36:17.545Z,11.60
2023-03-17T17:38:46.358Z,12.68
2023-03-17T17:41:17.824Z,9.63
2023-03-17T17:43:47.112Z,13.00
2023-03-17T17:46:24.645Z,13.45
2023-03-17T17:48:53.041Z,15.88
2023-03-17T17:51:21.533Z,10.55
2023-03-17T17:53:49.751Z,11.60
2023-03-17T17:56:19.281Z,10.70
2023-03-17T17:58:47.977Z,10.55
2023-03-17T18:01:20.470Z,11.40
2023-03-17T18:03:49.429Z,11.45
2023-03-17T18:06:18.750Z,12.05
2023-03-17T18:08:47.676Z,12.07
2023-03-17T18:11:15.904Z,12.00
2023-03-17T18:13:44.270Z,11.63
2023-03-17T18:16:16.480Z,10.27
2023-03-17T18:18:46.815Z,10.63
2023-03-17T18:21:15.126Z,11.25
2023-03-17T18:23:47.786Z,10.98
2023-03-17T18:26:18.033Z,13.93
2023-03-17T18:28:46.716Z,14.35
2023-03-17T18:31:21.675Z,10.00
2023-03-17T18:33:53.825Z,12.45
2023-03-17T18:36:22.657Z,12.13
2023-03-17T18:38:50.962Z,10.88
2023-03-17T18:41:19.352Z,10.90
2023-03-17T18:43:47.574Z,10.23
2023-03-17T18:46:16.020Z,8.50
2023-03-17T18:48:44.609Z,11.73
2023-03-17T18:51:12.842Z,9.18
2023-03-17T18:53:41.186Z,11.90
2023-03-17T18:56:10.087Z,11.68
2023-03-17T18:58:38.404Z,12.07
2023-03-17T19:01:07.341Z,13.80
2023-03-17T19:03:36.033Z,11.95
2023-03-17T19:06:19.606Z,11.05
2023-03-17T19:08:49.170Z,12.63
2023-03-17T19:11:20.197Z,11.48
2023-03-17T19:13:48.469Z,14.73
2023-03-17T19:16:17.560Z,9.18
2023-03-17T19:18:47.197Z,10.75
2023-03-17T19:21:15.464Z,11.35
2023-03-17T19:23:44.074Z,13.38
2023-03-17T19:26:12.565Z,10.48
2023-03-17T19:28:41.083Z,9.07
2023-03-17T19:31:10.172Z,11.25
2023-03-17T19:33:38.713Z,13.48
2023-03-17T19:36:10.348Z,9.57
2023-03-17T19:38:39.628Z,10.40
2023-03-17T19:41:08.318Z,7.18
2023-03-17T19:43:41.272Z,9.32
2023-03-17T19:46:12.073Z,10.65
2023-03-17T19:48:41.561Z,11.80
2023-03-17T19:51:10.278Z,11.57
2023-03-17T19:53:38.655Z,11.50
2023-03-17T19:56:07.522Z,10.20
2023-03-17T19:58:36.145Z,9.73
2023-03-17T20:01:06.071Z,9.88
2023-03-17T20:03:36.023Z,10.30
2023-03-17T20:06:07.112Z,12.20
2023-03-17T20:08:36.506Z,9.18
2023-03-17T20:11:06.404Z,7.47
2023-03-17T20:13:36.246Z,8.05
2023-03-17T20:16:05.392Z,6.63
2023-03-17T20:18:34.393Z,8.98
2023-03-17T20:21:06.299Z,6.70
2023-03-17T20:23:34.936Z,4.85
2023-03-17T20:26:04.452Z,6.57
2023-03-17T20:28:33.426Z,7.40
2023-03-17T20:31:03.768Z,7.15
2023-03-17T20:33:34.145Z,6.45
2023-03-17T20:36:03.979Z,6.78
2023-03-17T20:38:37.637Z,4.82
2023-03-17T20:41:15.342Z,5.20
2023-03-17T20:43:43.896Z,5.47
2023-03-17T20:46:20.705Z,6.22
2023-03-17T20:48:49.792Z,7.03
2023-03-17T20:51:18.586Z,6.63
2023-03-17T20:53:50.392Z,5.32
2023-03-17T20:56:21.137Z,8.40
2023-03-17T20:58:51.218Z,7.65
2023-03-17T21:01:21.439Z,5.85
2023-03-17T21:03:51.017Z,5.75
2023-03-17T21:06:22.513Z,6.20
2023-03-17T21:08:51.860Z,8.32
2023-03-17T21:11:23.946Z,9.93
2023-03-17T21:13:52.691Z,7.47
2023-03-17T21:16:29.397Z,6.30
2023-03-17T21:18:57.818Z,7.50
2023-03-17T21:21:26.081Z,8.68
2023-03-17T21:23:54.902Z,5.90
2023-03-17T21:26:23.797Z,5.97
2023-03-17T21:28:53.397Z,5.00
2023-03-17T21:31:21.805Z,9.40
2023-03-17T21:33:51.331Z,5.55
2023-03-17T21:36:21.706Z,6.32
2023-03-17T21:38:49.917Z,5.80
2023-03-17T21:41:34.344Z,7.03
2023-03-17T21:44:04.002Z,6.10
2023-03-17T21:46:32.746Z,7.82
2023-03-17T21:49:02.305Z,5.15
2023-03-17T21:51:30.839Z,3.78
2023-03-17T21:53:59.535Z,3.78
2023-03-17T21:56:28.262Z,4.65
2023-03-17T21:58:57.261Z,7.05
2023-03-17T22:01:25.601Z,4.38
2023-03-17T22:03:54.037Z,3.90
2023-03-17T22:06:22.613Z,4.15
2023-03-17T22:08:51.434Z,4.95
2023-03-17T22:11:21.000Z,3.45
2023-03-17T22:13:49.718Z,3.92
2023-03-17T22:16:19.390Z,5.32
2023-03-17T22:18:48.961Z,7.72
2023-03-17T22:21:17.301Z,8.18
2023-03-17T22:23:46.009Z,7.50
2023-03-17T22:26:16.603Z,4.78
2023-03-17T22:28:46.441Z,3.95
2023-03-17T22:31:22.679Z,4.43
2023-03-17T22:33:55.327Z,5.78
2023-03-17T22:36:25.662Z,5.55
2023-03-17T22:38:54.449Z,6.03
2023-03-17T22:41:25.107Z,3.60
2023-03-17T22:43:53.315Z,5.65
2023-03-17T22:46:22.575Z,6.47
2023-03-17T22:48:52.641Z,6.25
2023-03-17T22:51:24.448Z,4.53
2023-03-17T22:53:53.447Z,5.25
2023-03-17T22:56:22.541Z,5.75
2023-03-17T22:58:51.157Z,4.13
2023-03-17T23:01:21.110Z,6.20
2023-03-17T23:03:49.494Z,5.00
2023-03-17T23:06:18.608Z,7.18
2023-03-17T23:08:47.617Z,4.60
2023-03-17T23:11:19.233Z,7.45
2023-03-17T23:13:49.148Z,4.60
2023-03-17T23:16:18.306Z,5.43
2023-03-17T23:18:47.191Z,4.20
2023-03-17T23:21:34.645Z,6.43
2023-03-17T23:24:04.413Z,6.10
2023-03-17T23:26:33.094Z,6.70
2023-03-17T23:29:01.588Z,4.22
2023-03-17T23:31:29.812Z,5.43
2023-03-17T23:33:58.033Z,4.75
2023-03-17T23:36:26.597Z,4.50
2023-03-17T23:38:55.064Z,5.75
2023-03-17T23:41:23.563Z,5.75
2023-03-17T23:43:52.166Z,5.88
2023-03-17T23:46:21.484Z,5.85
2023-03-17T23:48:50.856Z,5.47
2023-03-17T23:51:19.918Z,3.58
2023-03-17T23:53:48.912Z,5.35
2023-03-17T23:56:17.157Z,5.28
2023-03-17T23:58:45.818Z,4.68
